Time;durP1;ratioP1;P1;durP2;ratioP2;P2;SDS_P1;SDS_P2;PMS_P1;PMS_P2;Temp;Humidity;BMP_temperature;BMP_pressure;BME280_temperature;BME280_humidity;BME280_pressure;Samples;Min_cycle;Max_cycle;Signal;HPM_P1;HPM_P2
2022/05/18 00:01:02;;;;;;;1.40;1.20;;;16.40;88.70;;;;;;5005640;28;20660;-86
2022/05/18 00:03:35;;;;;;;1.57;1.47;;;16.40;88.50;;;;;;5005936;28;20720;-85
2022/05/18 00:06:04;;;;;;;1.47;1.27;;;16.30;89.70;;;;;;5004585;28;21198;-85
2022/05/18 00:08:35;;;;;;;1.60;1.23;;;16.30;90.30;;;;;;5005771;28;20612;-85
2022/05/18 00:11:06;;;;;;;2.17;1.30;;;16.30;90.30;;;;;;5006267;28;20956;-85
2022/05/18 00:13:34;;;;;;;1.70;1.60;;;16.20;90.10;;;;;;5006206;28;20632;-86
2022/05/18 00:16:03;;;;;;;1.43;1.33;;;16.30;90.00;;;;;;5004172;28;20647;-85
2022/05/18 00:18:32;;;;;;;1.37;1.27;;;16.20;90.30;;;;;;5005936;28;20627;-86
2022/05/18 00:21:00;;;;;;;1.50;1.40;;;16.10;91.20;;;;;;5005003;28;20615;-86
2022/05/18 00:23:28;;;;;;;0.90;0.90;;;16.00;91.40;;;;;;5006559;28;20711;-86
2022/05/18 00:25:57;;;;;;;1.50;1.40;;;16.00;91.60;;;;;;5004405;28;20627;-85
2022/05/18 00:28:25;;;;;;;1.67;1.33;;;15.90;91.90;;;;;;5004251;28;20661;-84
2022/05/18 00:30:53;;;;;;;1.63;1.53;;;15.80;92.00;;;;;;5003666;28;20636;-86
2022/05/18 00:33:21;;;;;;;1.80;1.70;;;15.80;92.50;;;;;;5004258;28;20664;-85
2022/05/18 00:35:49;;;;;;;1.43;1.33;;;15.80;91.70;;;;;;5003576;28;20629;-84
2022/05/18 00:38:16;;;;;;;1.43;1.33;;;15.90;91.80;;;;;;5005080;28;20789;-86
2022/05/18 00:40:47;;;;;;;1.43;1.33;;;15.90;91.60;;;;;;5004426;28;20652;-85
2022/05/18 00:43:19;;;;;;;2.27;1.10;;;15.90;92.10;;;;;;5003733;28;20631;-86
2022/05/18 00:45:46;;;;;;;1.30;1.20;;;15.80;92.30;;;;;;5003792;28;20721;-85
2022/05/18 00:48:14;;;;;;;1.37;1.20;;;15.90;92.10;;;;;;5003049;28;20668;-86
2022/05/18 00:50:42;;;;;;;2.00;1.70;;;15.70;92.70;;;;;;5004245;28;20683;-84
2022/05/18 00:53:17;;;;;;;1.40;1.10;;;15.70;92.50;;;;;;5006257;28;21171;-85
2022/05/18 00:55:48;;;;;;;1.37;1.27;;;15.70;93.20;;;;;;5004368;28;20613;-86
2022/05/18 00:58:19;;;;;;;1.73;1.63;;;15.60;93.20;;;;;;5004630;28;20640;-85
2022/05/18 01:00:48;;;;;;;1.03;0.90;;;15.60;93.50;;;;;;5002505;28;20734;-86
2022/05/18 01:03:19;;;;;;;1.77;1.60;;;15.60;93.60;;;;;;5003003;28;20734;-86
2022/05/18 01:05:51;;;;;;;1.43;1.33;;;15.50;93.80;;;;;;5002524;28;20651;-87
2022/05/18 01:08:30;;;;;;;1.60;1.50;;;15.50;94.20;;;;;;5003930;28;20652;-85
2022/05/18 01:10:57;;;;;;;1.93;1.53;;;15.50;93.50;;;;;;5003839;28;20678;-85
2022/05/18 01:13:25;;;;;;;2.33;2.13;;;15.50;93.70;;;;;;5005052;28;20620;-85
2022/05/18 01:15:54;;;;;;;2.33;1.70;;;15.50;94.10;;;;;;5002723;28;20632;-86
2022/05/18 01:18:21;;;;;;;2.20;1.47;;;15.50;94.30;;;;;;5005849;28;20620;-85
2022/05/18 01:20:49;;;;;;;1.63;1.53;;;15.40;94.20;;;;;;4999030;28;20664;-86
2022/05/18 01:23:34;;;;;;;2.20;1.50;;;15.40;93.00;;;;;;5006740;28;20732;-85
2022/05/18 01:26:12;;;;;;;1.33;1.23;;;15.40;92.80;;;;;;5004316;28;20628;-84
2022/05/18 01:28:45;;;;;;;1.90;1.37;;;15.40;92.70;;;;;;5003610;28;20987;-85
2022/05/18 01:31:12;;;;;;;1.30;1.30;;;15.40;93.10;;;;;;5001479;28;21210;-85
2022/05/18 01:33:40;;;;;;;1.20;1.10;;;15.40;92.80;;;;;;5003812;28;20682;-86
2022/05/18 01:36:07;;;;;;;1.87;1.40;;;15.50;92.70;;;;;;5003209;28;20636;-86
2022/05/18 01:38:35;;;;;;;0.90;0.90;;;15.40;93.20;;;;;;5003882;28;20671;-86
2022/05/18 01:41:10;;;;;;;1.53;1.43;;;15.40;93.20;;;;;;5002556;28;20620;-85
2022/05/18 01:43:43;;;;;;;1.73;1.40;;;15.40;93.60;;;;;;5003101;28;20624;-86
2022/05/18 01:46:12;;;;;;;1.83;1.20;;;15.50;93.10;;;;;;5002792;28;20721;-84
2022/05/18 01:48:42;;;;;;;1.93;1.70;;;15.50;93.20;;;;;;5002737;28;21198;-85
2022/05/18 01:51:10;;;;;;;1.27;1.17;;;15.50;93.90;;;;;;5003647;28;20632;-86
2022/05/18 01:53:37;;;;;;;2.87;1.90;;;15.40;93.80;;;;;;5004648;28;20629;-85
2022/05/18 01:56:07;;;;;;;1.57;1.47;;;15.30;93.80;;;;;;5002139;28;20714;-85
2022/05/18 01:58:34;;;;;;;1.33;1.20;;;15.30;94.00;;;;;;5003693;28;20636;-84
2022/05/18 02:01:04;;;;;;;2.00;1.87;;;15.30;94.60;;;;;;5002970;28;20612;-85
2022/05/18 02:03:31;;;;;;;1.77;1.47;;;15.10;95.00;;;;;;5002480;28;21222;-85
2022/05/18 02:05:58;;;;;;;2.23;1.43;;;15.00;95.20;;;;;;5002586;28;20714;-85
2022/05/18 02:08:25;;;;;;;1.50;1.40;;;15.10;95.60;;;;;;5002391;28;20683;-84
2022/05/18 02:10:52;;;;;;;1.47;1.30;;;15.00;95.70;;;;;;5003325;28;20620;-85
2022/05/18 02:13:20;;;;;;;2.33;1.83;;;14.90;95.70;;;;;;5003737;28;20987;-85
2022/05/18 02:15:48;;;;;;;3.47;2.10;;;14.90;95.80;;;;;;5002018;28;20671;-85
2022/05/18 02:18:16;;;;;;;1.90;1.80;;;14.90;96.00;;;;;;5003015;28;20628;-86
2022/05/18 02:20:43;;;;;;;1.87;1.53;;;14.90;96.00;;;;;;5003520;28;21272;-84
2022/05/18 02:23:10;;;;;;;1.60;1.50;;;14.90;96.70;;;;;;5004624;28;20655;-84
2022/05/18 02:25:38;;;;;;;1.50;1.40;;;14.80;96.50;;;;;;5003629;28;20723;-83
2022/05/18 02:28:05;;;;;;;1.90;1.80;;;14.80;96.60;;;;;;5003228;28;21309;-85
2022/05/18 02:30:33;;;;;;;3.53;1.50;;;14.80;97.10;;;;;;5001443;28;20639;-85
2022/05/18 02:33:00;;;;;;;2.43;1.60;;;14.70;97.40;;;;;;5003020;28;20686;-85
2022/05/18 02:35:28;;;;;;;2.37;1.97;;;14.60;97.50;;;;;;5002101;28;20724;-85
2022/05/18 02:37:55;;;;;;;2.23;1.97;;;14.60;97.60;;;;;;5002661;28;20953;-85
2022/05/18 02:40:23;;;;;;;1.70;1.60;;;14.70;96.80;;;;;;5002313;28;20660;-85
2022/05/18 02:42:50;;;;;;;2.10;1.50;;;14.70;97.00;;;;;;5003401;28;20687;-85
2022/05/18 02:45:17;;;;;;;1.97;1.50;;;14.70;97.60;;;;;;5001884;28;20655;-85
2022/05/18 02:47:43;;;;;;;1.57;1.47;;;14.60;97.80;;;;;;5002729;28;20688;-84
2022/05/18 02:50:11;;;;;;;2.57;1.80;;;14.50;98.20;;;;;;5001976;28;20726;-84
2022/05/18 02:52:39;;;;;;;1.77;1.57;;;14.30;98.60;;;;;;5004541;28;20694;-85
2022/05/18 02:57:52;;;;;;;1.67;1.57;;;14.20;99.10;;;;;;5003183;28;20638;-86
2022/05/18 03:00:19;;;;;;;2.23;2.00;;;14.20;99.60;;;;;;5003264;28;20662;-85
2022/05/18 03:02:46;;;;;;;1.43;1.30;;;14.30;99.60;;;;;;5002360;28;20633;-84
2022/05/18 03:05:13;;;;;;;1.70;1.47;;;14.30;99.50;;;;;;5002261;28;20655;-84
2022/05/18 03:07:43;;;;;;;2.03;1.63;;;14.30;99.00;;;;;;5003365;28;20675;-84
2022/05/18 03:10:11;;;;;;;1.73;1.43;;;14.30;98.10;;;;;;5002583;28;20622;-84
2022/05/18 03:12:37;;;;;;;1.37;1.27;;;14.30;98.80;;;;;;5004962;28;20678;-85
2022/05/18 03:15:05;;;;;;;1.50;1.30;;;14.30;98.30;;;;;;5003084;28;21063;-85
2022/05/18 03:17:32;;;;;;;1.60;1.50;;;14.30;99.10;;;;;;5005694;28;20625;-85
2022/05/18 03:19:59;;;;;;;2.07;1.63;;;14.30;99.20;;;;;;5007039;28;20624;-84
2022/05/18 03:25:12;;;;;;;1.40;1.30;;;14.30;98.60;;;;;;5007605;28;20760;-85
2022/05/18 03:27:41;;;;;;;1.10;1.00;;;14.30;98.30;;;;;;5005366;28;20669;-85
2022/05/18 03:30:10;;;;;;;1.90;1.80;;;14.40;98.00;;;;;;5004284;28;20659;-85
2022/05/18 03:32:37;;;;;;;2.27;2.07;;;14.30;97.80;;;;;;5005311;28;21261;-85
2022/05/18 03:35:06;;;;;;;1.70;1.43;;;14.20;98.30;;;;;;5006413;28;20620;-84
2022/05/18 03:37:33;;;;;;;2.60;1.57;;;14.30;98.60;;;;;;5006250;28;20920;-85
2022/05/18 03:39:59;;;;;;;1.27;1.17;;;14.30;98.10;;;;;;5006295;28;20635;-85
2022/05/18 03:42:28;;;;;;;1.30;1.20;;;14.30;98.20;;;;;;4998740;28;20645;-85
2022/05/18 03:44:54;;;;;;;0.93;0.93;;;14.30;98.70;;;;;;4997262;28;21048;-85
2022/05/18 03:47:21;;;;;;;2.20;1.57;;;14.30;99.10;;;;;;5005011;28;20761;-84
2022/05/18 03:49:48;;;;;;;1.93;1.20;;;14.30;99.40;;;;;;5006026;28;20764;-84
2022/05/18 03:52:15;;;;;;;1.43;1.30;;;14.20;99.80;;;;;;5006822;28;20758;-84
2022/05/18 03:54:42;;;;;;;1.90;1.73;;;14.20;99.50;;;;;;5007968;28;20627;-84
2022/05/18 03:57:10;;;;;;;2.27;1.87;;;14.20;99.50;;;;;;5005446;28;20645;-84
2022/05/18 03:59:39;;;;;;;2.10;1.90;;;14.10;99.80;;;;;;5006113;28;21005;-84
2022/05/18 04:02:06;;;;;;;3.00;2.43;;;14.20;99.80;;;;;;5006128;28;20638;-85
2022/05/18 04:04:33;;;;;;;2.80;1.73;;;14.20;99.60;;;;;;5005411;28;20661;-84
2022/05/18 04:07:00;;;;;;;1.73;1.60;;;14.20;99.20;;;;;;5001519;28;21041;-84
2022/05/18 04:09:27;;;;;;;2.20;2.00;;;14.20;99.50;;;;;;5005112;28;20656;-85
2022/05/18 04:11:54;;;;;;;1.93;1.70;;;14.10;99.90;;;;;;5006809;28;21186;-84
2022/05/18 04:14:20;;;;;;;1.40;1.30;;;14.00;99.90;;;;;;5007095;28;20718;-84
2022/05/18 04:16:50;;;;;;;1.90;1.80;;;13.90;99.90;;;;;;5004660;28;21252;-83
2022/05/18 04:19:17;;;;;;;1.50;1.30;;;13.90;99.90;;;;;;5004799;28;20633;-84
2022/05/18 04:21:44;;;;;;;1.97;1.60;;;14.00;99.90;;;;;;5005632;28;20656;-83
2022/05/18 04:24:11;;;;;;;0.97;0.97;;;14.00;99.90;;;;;;5006561;28;20628;-84
2022/05/18 04:26:37;;;;;;;2.00;1.90;;;14.10;99.90;;;;;;5005854;28;20663;-84
2022/05/18 04:29:04;;;;;;;3.10;1.97;;;14.20;99.90;;;;;;5004992;28;20685;-84
2022/05/18 04:31:31;;;;;;;1.67;1.57;;;14.30;99.90;;;;;;5005639;28;20750;-84
2022/05/18 04:33:59;;;;;;;1.70;1.60;;;14.20;99.90;;;;;;5005258;28;20712;-84
2022/05/18 04:36:26;;;;;;;1.90;1.80;;;14.20;99.90;;;;;;5003650;28;20761;-84
2022/05/18 04:38:53;;;;;;;1.30;1.20;;;14.20;99.90;;;;;;5004638;28;21254;-83
2022/05/18 04:41:20;;;;;;;1.33;1.30;;;14.30;99.90;;;;;;5005061;28;20701;-83
2022/05/18 04:43:47;;;;;;;1.80;1.70;;;14.50;99.90;;;;;;5005296;28;20651;-84
2022/05/18 04:46:13;;;;;;;2.10;1.90;;;14.50;99.90;;;;;;5004720;28;20770;-84
2022/05/18 04:48:41;;;;;;;1.73;1.53;;;14.50;99.90;;;;;;5004832;28;20660;-83
2022/05/18 04:51:09;;;;;;;1.10;1.03;;;14.60;99.90;;;;;;5007353;28;20734;-84
2022/05/18 04:53:37;;;;;;;1.73;1.57;;;14.70;99.60;;;;;;4990738;28;20701;-83
2022/05/18 04:56:05;;;;;;;1.30;1.20;;;14.90;99.30;;;;;;4989998;28;20668;-84
2022/05/18 04:58:32;;;;;;;1.23;1.13;;;15.00;98.60;;;;;;4998583;28;20710;-85
2022/05/18 05:01:02;;;;;;;2.60;2.20;;;15.20;97.70;;;;;;5005354;28;21023;-85
2022/05/18 05:03:30;;;;;;;1.50;1.40;;;15.30;98.10;;;;;;5003636;28;20664;-84
2022/05/18 05:05:57;;;;;;;1.87;1.47;;;15.30;98.00;;;;;;5003570;28;20624;-83
2022/05/18 05:08:25;;;;;;;1.23;1.03;;;15.30;98.00;;;;;;5004798;28;21009;-84
2022/05/18 05:10:52;;;;;;;1.50;1.40;;;15.30;98.40;;;;;;5004738;28;20961;-84
2022/05/18 05:13:19;;;;;;;1.93;1.83;;;15.40;98.50;;;;;;5001325;28;20632;-84
2022/05/18 05:15:46;;;;;;;2.60;1.20;;;15.60;98.30;;;;;;5005615;28;20652;-85
2022/05/18 05:18:13;;;;;;;1.63;1.40;;;15.70;98.00;;;;;;5006393;28;21039;-84
2022/05/18 05:20:40;;;;;;;1.60;1.50;;;15.80;98.00;;;;;;5000227;28;21235;-85
2022/05/18 05:23:07;;;;;;;1.47;1.37;;;16.00;97.30;;;;;;5006813;28;20628;-83
2022/05/18 05:25:35;;;;;;;2.10;1.60;;;16.10;97.10;;;;;;5005472;28;20679;-84
2022/05/18 05:28:02;;;;;;;1.70;1.17;;;16.30;95.60;;;;;;5004844;28;20753;-84
2022/05/18 05:30:29;;;;;;;2.00;1.90;;;16.40;95.10;;;;;;5005632;28;20732;-84
2022/05/18 05:32:56;;;;;;;1.40;1.30;;;16.50;94.40;;;;;;5005613;28;21131;-84
2022/05/18 05:35:22;;;;;;;1.40;1.30;;;16.60;94.00;;;;;;5004714;28;20631;-83
2022/05/18 05:37:49;;;;;;;1.30;1.20;;;16.70;94.20;;;;;;5004462;28;20632;-83
2022/05/18 05:40:17;;;;;;;1.53;1.37;;;16.70;94.30;;;;;;5005016;28;20847;-84
2022/05/18 05:42:45;;;;;;;2.07;1.63;;;16.80;93.80;;;;;;5005230;28;21238;-85
2022/05/18 05:45:13;;;;;;;2.97;1.20;;;16.90;94.20;;;;;;4993189;28;20655;-84
2022/05/18 05:47:40;;;;;;;1.20;1.10;;;17.00;94.20;;;;;;5001370;28;20628;-84
2022/05/18 05:50:08;;;;;;;1.80;1.70;;;17.00;93.30;;;;;;5004817;28;20628;-83
2022/05/18 05:52:35;;;;;;;4.90;1.80;;;17.20;93.30;;;;;;5005998;28;20678;-84
2022/05/18 05:55:02;;;;;;;1.50;1.40;;;17.30;93.20;;;;;;5006174;28;20660;-84
2022/05/18 05:57:29;;;;;;;1.40;1.30;;;17.40;92.90;;;;;;5004509;28;20649;-84
2022/05/18 05:59:57;;;;;;;1.43;1.30;;;17.50;93.00;;;;;;5004286;28;20626;-84
2022/05/18 06:02:25;;;;;;;2.10;1.70;;;17.60;93.10;;;;;;5005529;28;20612;-84
2022/05/18 06:04:52;;;;;;;1.13;1.00;;;17.70;92.10;;;;;;5005434;28;20629;-84
2022/05/18 06:07:18;;;;;;;2.67;1.33;;;17.80;92.00;;;;;;5005121;28;20722;-84
2022/05/18 06:09:45;;;;;;;1.53;1.20;;;17.80;91.80;;;;;;5004638;28;20761;-84
2022/05/18 06:12:12;;;;;;;1.20;1.10;;;17.90;91.80;;;;;;5006317;28;20628;-83
2022/05/18 06:14:39;;;;;;;1.30;1.20;;;18.10;91.70;;;;;;5006281;28;20733;-84
2022/05/18 06:17:08;;;;;;;1.60;1.50;;;18.10;91.10;;;;;;5005773;28;20691;-84
2022/05/18 06:19:35;;;;;;;1.77;1.67;;;18.20;90.90;;;;;;5005251;28;20680;-84
2022/05/18 06:22:03;;;;;;;1.30;1.20;;;18.20;91.00;;;;;;5004407;28;20620;-84
2022/05/18 06:24:30;;;;;;;1.60;1.50;;;18.30;90.80;;;;;;5005353;28;20648;-84
2022/05/18 06:26:58;;;;;;;1.53;1.40;;;18.40;90.90;;;;;;5004033;28;20670;-84
2022/05/18 06:29:25;;;;;;;1.60;1.50;;;18.50;90.80;;;;;;5003958;28;20807;-83
2022/05/18 06:31:52;;;;;;;1.67;1.57;;;18.60;90.90;;;;;;5006760;28;20634;-84
2022/05/18 06:34:21;;;;;;;1.23;1.13;;;18.70;90.40;;;;;;4990674;28;20624;-85
2022/05/18 06:36:49;;;;;;;1.30;1.20;;;18.70;90.80;;;;;;4989523;28;21048;-84
2022/05/18 06:39:18;;;;;;;1.60;1.50;;;18.70;90.70;;;;;;4989436;28;20656;-85
2022/05/18 06:41:46;;;;;;;3.30;1.50;;;18.80;91.00;;;;;;4989307;28;20644;-85
2022/05/18 06:44:13;;;;;;;2.13;1.40;;;18.90;90.40;;;;;;4989502;28;20625;-84
2022/05/18 06:46:41;;;;;;;1.40;1.30;;;19.00;89.40;;;;;;4988767;28;20621;-85
2022/05/18 06:49:11;;;;;;;1.20;1.10;;;19.10;89.30;;;;;;4990066;28;20768;-84
2022/05/18 06:51:41;;;;;;;1.20;1.10;;;19.10;89.10;;;;;;4993991;28;20628;-84
2022/05/18 06:54:08;;;;;;;1.37;1.27;;;19.30;89.70;;;;;;4992569;28;20644;-84
2022/05/18 06:56:37;;;;;;;1.23;1.03;;;19.40;88.80;;;;;;4993060;28;20633;-84
2022/05/18 06:59:04;;;;;;;1.73;1.53;;;19.50;87.50;;;;;;4994372;28;21183;-84
2022/05/18 07:01:31;;;;;;;3.70;1.77;;;19.60;87.50;;;;;;5004166;28;20715;-83
2022/05/18 07:03:59;;;;;;;1.87;1.77;;;19.70;85.50;;;;;;5006894;28;21328;-85
2022/05/18 07:06:30;;;;;;;3.33;1.10;;;19.90;86.10;;;;;;5006372;28;20719;-84
2022/05/18 07:08:58;;;;;;;1.67;1.53;;;20.00;86.60;;;;;;5008244;28;20671;-85
2022/05/18 07:11:26;;;;;;;1.60;1.50;;;20.10;85.30;;;;;;5008068;28;21205;-85
2022/05/18 07:13:54;;;;;;;1.40;1.30;;;20.20;84.90;;;;;;5007019;28;20632;-85
2022/05/18 07:16:22;;;;;;;1.70;1.20;;;20.30;85.30;;;;;;5007762;28;20664;-85
2022/05/18 07:18:49;;;;;;;2.27;1.60;;;20.50;85.10;;;;;;5008221;28;21064;-84
2022/05/18 07:21:17;;;;;;;1.43;1.33;;;20.60;81.90;;;;;;5005833;28;20628;-85
2022/05/18 07:23:44;;;;;;;1.60;1.50;;;20.60;82.00;;;;;;5007544;28;20638;-85
2022/05/18 07:26:13;;;;;;;1.10;0.90;;;20.70;82.40;;;;;;5008490;28;20624;-84
2022/05/18 07:28:40;;;;;;;1.30;1.20;;;20.70;81.90;;;;;;5007544;28;20738;-85
2022/05/18 07:31:08;;;;;;;1.20;1.10;;;20.90;81.40;;;;;;5006661;28;20852;-85
2022/05/18 07:33:36;;;;;;;2.33;1.50;;;20.90;82.00;;;;;;5006472;28;20723;-84
2022/05/18 07:36:05;;;;;;;1.80;1.53;;;21.00;81.20;;;;;;5005553;28;20730;-86
2022/05/18 07:38:33;;;;;;;2.37;1.83;;;21.10;82.00;;;;;;5007968;28;20650;-85
2022/05/18 07:41:01;;;;;;;1.60;1.50;;;21.20;82.20;;;;;;5006884;28;20727;-84
2022/05/18 07:43:30;;;;;;;1.77;1.63;;;21.30;81.40;;;;;;4992932;28;20644;-86
2022/05/18 07:45:57;;;;;;;2.00;1.80;;;21.40;80.20;;;;;;5002631;28;20723;-85
2022/05/18 07:48:25;;;;;;;1.90;1.80;;;21.50;81.70;;;;;;5006268;28;20780;-84
2022/05/18 07:50:52;;;;;;;1.57;1.47;;;21.60;81.00;;;;;;5006843;28;20620;-85
2022/05/18 07:53:20;;;;;;;1.57;1.47;;;21.70;80.50;;;;;;5006046;28;21060;-85
2022/05/18 07:55:48;;;;;;;1.50;1.40;;;21.70;80.20;;;;;;5006049;28;20624;-85
2022/05/18 07:58:18;;;;;;;1.73;1.53;;;21.80;79.40;;;;;;5005621;28;20721;-85
2022/05/18 08:00:47;;;;;;;1.63;1.53;;;21.90;78.10;;;;;;5006869;28;20705;-84
2022/05/18 08:03:15;;;;;;;1.43;1.33;;;22.00;77.20;;;;;;5006867;28;21276;-85
2022/05/18 08:05:43;;;;;;;4.27;1.60;;;22.00;77.30;;;;;;5006828;28;20632;-85
2022/05/18 08:08:13;;;;;;;1.50;1.40;;;22.10;78.40;;;;;;5006784;28;20740;-84
2022/05/18 08:16:12;;;;;;;3.40;1.73;;;22.40;74.80;;;;;;5004739;28;20656;-85
2022/05/18 08:18:40;;;;;;;3.60;2.87;;;22.50;75.60;;;;;;5007234;28;20635;-84
2022/05/18 08:21:07;;;;;;;2.13;1.93;;;22.60;77.00;;;;;;5005302;28;20656;-84
2022/05/18 08:23:33;;;;;;;2.30;1.80;;;22.70;74.80;;;;;;5007402;28;20663;-84
2022/05/18 08:26:01;;;;;;;1.40;1.30;;;22.80;76.60;;;;;;5006717;28;20678;-84
2022/05/18 08:28:28;;;;;;;1.60;1.50;;;22.80;76.20;;;;;;5006917;28;20733;-85
2022/05/18 08:30:55;;;;;;;5.33;2.23;;;22.90;75.60;;;;;;5005940;28;21271;-84
2022/05/18 08:33:24;;;;;;;1.70;1.60;;;23.10;76.20;;;;;;5006470;28;20628;-84
2022/05/18 08:35:51;;;;;;;3.03;2.00;;;23.10;74.10;;;;;;5004627;28;20722;-85
2022/05/18 08:38:19;;;;;;;1.70;1.60;;;23.10;73.70;;;;;;5005799;28;20755;-84
2022/05/18 08:40:49;;;;;;;1.73;1.60;;;23.10;71.80;;;;;;5005510;28;20668;-83
2022/05/18 08:43:28;;;;;;;1.87;1.77;;;23.20;73.40;;;;;;5006272;28;20996;-85
2022/05/18 08:46:04;;;;;;;1.67;1.57;;;23.40;72.50;;;;;;5005190;28;20723;-86
2022/05/18 08:48:43;;;;;;;1.80;1.67;;;23.50;72.40;;;;;;5005103;28;20623;-85
2022/05/18 08:51:24;;;;;;;1.53;1.40;;;23.50;72.20;;;;;;5006670;28;20955;-84
2022/05/18 08:53:59;;;;;;;1.77;1.67;;;23.60;70.80;;;;;;5005225;28;21218;-84
2022/05/18 08:56:32;;;;;;;3.27;3.07;;;23.70;70.20;;;;;;5007924;28;20659;-84
2022/05/18 08:59:02;;;;;;;2.50;1.80;;;23.70;71.30;;;;;;5001272;28;20644;-85
2022/05/18 09:01:36;;;;;;;2.33;2.23;;;23.80;69.50;;;;;;5004149;28;20635;-84
2022/05/18 09:04:10;;;;;;;2.20;1.40;;;23.80;69.30;;;;;;5003083;28;20649;-86
2022/05/18 09:06:41;;;;;;;1.40;1.30;;;23.80;71.20;;;;;;5004689;28;20639;-85
2022/05/18 09:11:57;;;;;;;2.10;1.90;;;24.10;70.30;;;;;;5006245;28;20620;-85
2022/05/18 09:14:27;;;;;;;2.00;1.80;;;24.20;70.00;;;;;;5005534;28;21277;-84
2022/05/18 09:17:04;;;;;;;1.90;1.80;;;24.20;67.10;;;;;;5005119;28;20632;-85
2022/05/18 09:19:47;;;;;;;1.93;1.57;;;24.20;67.80;;;;;;4999268;28;20625;-85
2022/05/18 09:22:25;;;;;;;2.10;1.63;;;24.30;68.80;;;;;;5004155;28;20636;-84
2022/05/18 09:25:01;;;;;;;1.67;1.57;;;24.50;68.10;;;;;;5002349;28;20723;-85
2022/05/18 09:27:43;;;;;;;1.57;1.47;;;24.60;65.80;;;;;;5004616;28;21029;-84
2022/05/18 09:30:18;;;;;;;2.60;1.80;;;24.60;65.50;;;;;;5004500;28;21129;-85
2022/05/18 09:33:09;;;;;;;1.33;1.20;;;24.70;67.20;;;;;;5004798;28;20624;-86
2022/05/18 09:36:11;;;;;;;1.63;1.53;;;24.80;64.30;;;;;;5002778;28;21059;-84
2022/05/18 09:38:44;;;;;;;1.20;1.10;;;24.80;65.20;;;;;;4974157;28;21274;-85
2022/05/18 09:41:17;;;;;;;2.23;2.03;;;24.90;65.10;;;;;;5004972;28;20624;-85
2022/05/18 09:43:50;;;;;;;2.03;1.83;;;25.10;63.60;;;;;;5005465;28;20674;-85
2022/05/18 09:46:23;;;;;;;1.43;1.33;;;25.10;63.50;;;;;;5005251;28;20974;-85
2022/05/18 09:48:56;;;;;;;1.43;1.33;;;25.20;62.00;;;;;;5004667;28;21020;-85
2022/05/18 09:51:26;;;;;;;1.70;1.60;;;25.20;63.30;;;;;;5004535;28;20652;-85
2022/05/18 09:53:58;;;;;;;1.60;1.50;;;25.30;61.00;;;;;;5007549;28;20623;-84
2022/05/18 09:56:31;;;;;;;1.67;1.57;;;25.40;60.40;;;;;;5006695;28;20740;-85
2022/05/18 09:59:06;;;;;;;1.40;1.30;;;25.50;61.70;;;;;;5001783;28;20625;-85
2022/05/18 10:10:09;;;;;;;2.00;1.90;;;25.80;59.50;;;;;;5000789;28;20656;-86
2022/05/18 10:12:40;;;;;;;2.13;1.60;;;25.90;57.60;;;;;;5007968;28;21051;-85
2022/05/18 10:15:20;;;;;;;2.47;1.67;;;26.20;59.30;;;;;;5003941;28;20631;-85
2022/05/18 10:17:52;;;;;;;1.50;1.40;;;26.30;58.60;;;;;;5004093;28;20661;-84
2022/05/18 10:20:26;;;;;;;1.30;1.17;;;26.30;57.80;;;;;;5004410;28;20656;-85
2022/05/18 10:22:56;;;;;;;1.60;1.53;;;26.30;57.70;;;;;;5005030;28;21166;-85
2022/05/18 10:25:33;;;;;;;1.80;1.70;;;26.30;58.70;;;;;;5005094;28;20719;-86
2022/05/18 10:28:04;;;;;;;1.50;1.40;;;26.20;58.70;;;;;;5004674;28;20649;-86
2022/05/18 10:30:34;;;;;;;1.40;1.30;;;26.30;58.10;;;;;;5004342;28;20664;-85
2022/05/18 10:33:05;;;;;;;2.33;1.43;;;26.50;57.20;;;;;;5005032;28;20639;-85
2022/05/18 10:35:39;;;;;;;2.33;2.13;;;26.70;57.50;;;;;;5001782;28;20636;-85
2022/05/18 10:38:20;;;;;;;1.83;1.60;;;26.70;57.30;;;;;;5004264;28;21099;-85
2022/05/18 10:40:47;;;;;;;1.67;1.57;;;26.90;57.00;;;;;;5003128;28;20687;-85
2022/05/18 10:43:40;;;;;;;1.60;1.50;;;27.00;57.00;;;;;;5003001;28;20612;-84
2022/05/18 10:46:11;;;;;;;2.10;1.87;;;27.10;56.60;;;;;;4985761;28;20644;-85
2022/05/18 10:48:39;;;;;;;1.47;1.30;;;27.00;56.20;;;;;;5005283;28;20687;-86
2022/05/18 10:51:09;;;;;;;1.33;1.23;;;27.30;56.90;;;;;;5008786;28;20672;-85
2022/05/18 10:53:40;;;;;;;1.50;1.40;;;27.40;54.30;;;;;;5006647;28;20920;-85
2022/05/18 10:56:10;;;;;;;1.90;1.77;;;27.50;55.30;;;;;;5008970;28;20625;-85
2022/05/18 10:58:41;;;;;;;1.70;1.60;;;27.70;54.40;;;;;;5009071;28;20659;-85
2022/05/18 11:01:13;;;;;;;1.43;1.33;;;27.80;55.10;;;;;;5009318;28;20644;-85
2022/05/18 11:03:51;;;;;;;1.50;1.40;;;27.90;55.80;;;;;;5004886;28;20667;-85
2022/05/18 11:06:21;;;;;;;1.60;1.50;;;28.20;55.00;;;;;;4995168;28;20769;-85
2022/05/18 11:08:51;;;;;;;1.33;1.23;;;28.30;56.30;;;;;;5008530;28;20652;-85
2022/05/18 11:11:30;;;;;;;1.60;1.50;;;28.40;55.10;;;;;;5008810;28;21241;-85
2022/05/18 11:14:04;;;;;;;1.23;1.20;;;28.70;54.10;;;;;;5004848;28;20678;-86
2022/05/18 11:16:52;;;;;;;1.60;1.40;;;28.70;52.10;;;;;;5007403;28;20682;-85
2022/05/18 11:19:34;;;;;;;1.40;1.30;;;28.70;53.90;;;;;;4971409;28;20632;-85
2022/05/18 11:22:22;;;;;;;1.53;1.43;;;28.90;53.10;;;;;;4996733;28;20656;-85
2022/05/18 11:25:02;;;;;;;1.23;1.13;;;29.10;52.60;;;;;;5008132;28;20628;-86
2022/05/18 11:27:36;;;;;;;1.57;1.47;;;29.20;52.10;;;;;;5007739;28;20629;-86
2022/05/18 11:30:07;;;;;;;1.17;1.07;;;29.40;51.50;;;;;;4998996;28;20675;-85
2022/05/18 11:32:50;;;;;;;0.93;0.93;;;29.70;49.90;;;;;;5008915;28;20628;-85
2022/05/18 11:35:44;;;;;;;1.50;1.40;;;29.70;51.40;;;;;;5005496;28;21154;-85
2022/05/18 11:38:28;;;;;;;1.57;1.37;;;30.10;49.90;;;;;;5000213;28;20697;-85
2022/05/18 11:41:04;;;;;;;1.10;1.10;;;30.40;49.00;;;;;;4997957;28;20616;-85
2022/05/18 11:43:40;;;;;;;1.30;1.20;;;30.80;49.20;;;;;;5000250;28;20726;-85
2022/05/18 11:46:30;;;;;;;1.20;1.20;;;30.80;49.50;;;;;;4998669;28;20683;-86
2022/05/18 11:49:04;;;;;;;1.83;1.73;;;30.70;50.40;;;;;;4988231;28;20644;-85
2022/05/18 11:51:41;;;;;;;1.60;1.50;;;31.00;49.80;;;;;;5008001;28;20675;-86
2022/05/18 11:54:18;;;;;;;1.23;1.17;;;31.60;49.40;;;;;;5006272;28;21347;-85
2022/05/18 11:56:51;;;;;;;1.30;1.20;;;32.60;45.90;;;;;;5006317;28;20624;-86
2022/05/18 11:59:57;;;;;;;1.80;1.57;;;33.10;44.70;;;;;;5006496;28;20621;-86
2022/05/18 12:02:52;;;;;;;1.40;1.30;;;33.70;44.90;;;;;;5005714;28;20999;-86
2022/05/18 12:05:35;;;;;;;1.20;1.10;;;34.30;43.50;;;;;;4998467;28;21125;-86
2022/05/18 12:08:27;;;;;;;1.40;1.30;;;34.50;43.40;;;;;;5007511;28;20637;-87
2022/05/18 12:11:04;;;;;;;1.17;1.07;;;35.00;42.90;;;;;;5007447;28;21016;-86
2022/05/18 12:13:40;;;;;;;1.10;1.00;;;35.50;42.40;;;;;;5009214;28;20197;-87
2022/05/18 12:16:17;;;;;;;1.25;1.15;;;35.80;41.60;;;;;;5006638;28;20208;-85
2022/05/18 12:18:51;;;;;;;1.83;1.73;;;36.10;39.70;;;;;;5009049;28;20204;-84
2022/05/18 12:21:23;;;;;;;1.60;1.50;;;36.50;39.50;;;;;;5008780;28;20216;-84
2022/05/18 12:23:55;;;;;;;1.92;1.75;;;36.70;38.30;;;;;;5008643;28;20193;-84
2022/05/18 12:26:22;;;;;;;0.90;0.90;;;36.70;39.10;;;;;;5007333;28;20201;-84
2022/05/18 12:28:51;;;;;;;1.80;1.70;;;37.10;39.20;;;;;;5007335;28;20207;-84
2022/05/18 12:31:19;;;;;;;0.98;0.98;;;37.50;37.30;;;;;;5007267;28;20256;-84
2022/05/18 12:33:55;;;;;;;1.70;1.60;;;37.60;36.80;;;;;;5005444;28;20193;-84
2022/05/18 12:36:29;;;;;;;1.10;1.10;;;37.70;37.70;;;;;;5006712;28;20263;-84
2022/05/18 12:39:08;;;;;;;1.00;1.00;;;38.00;36.20;;;;;;5006606;28;20197;-84
2022/05/18 12:41:41;;;;;;;1.25;1.15;;;37.80;36.40;;;;;;5006709;28;20263;-85
2022/05/18 12:44:12;;;;;;;1.20;1.20;;;37.80;35.40;;;;;;5005709;28;20196;-84
2022/05/18 12:46:44;;;;;;;1.23;1.23;;;37.90;35.90;;;;;;5005172;28;20193;-86
2022/05/18 12:49:19;;;;;;;1.30;1.20;;;38.00;35.10;;;;;;5007813;28;20649;-84
2022/05/18 12:51:54;;;;;;;0.95;0.95;;;38.20;35.50;;;;;;5006992;28;20259;-84
2022/05/18 12:54:33;;;;;;;1.35;1.25;;;38.20;35.80;;;;;;5002794;28;20192;-86
2022/05/18 12:57:20;;;;;;;2.38;2.00;;;38.30;35.30;;;;;;5005482;28;21006;-84
2022/05/18 13:00:34;;;;;;;1.60;1.50;;;38.40;34.90;;;;;;5006714;28;20255;-84
2022/05/18 13:03:19;;;;;;;1.25;1.25;;;38.20;35.10;;;;;;5005411;28;20282;-85
2022/05/18 13:05:47;;;;;;;1.27;1.17;;;38.50;35.40;;;;;;5001524;28;20287;-84
2022/05/18 13:09:07;;;;;;;1.20;1.20;;;38.70;33.90;;;;;;5007382;28;20208;-84
2022/05/18 13:11:45;;;;;;;1.50;1.40;;;38.70;33.90;;;;;;5006562;28;20315;-84
2022/05/18 13:14:25;;;;;;;1.58;1.48;;;38.70;33.90;;;;;;5007974;28;20308;-84
2022/05/18 13:17:13;;;;;;;1.05;1.05;;;38.60;34.30;;;;;;5007247;28;20188;-85
2022/05/18 13:19:46;;;;;;;1.20;1.20;;;38.70;35.00;;;;;;5001934;28;20275;-86
2022/05/18 13:22:40;;;;;;;1.45;1.35;;;38.60;34.50;;;;;;5007908;28;20188;-85
2022/05/18 13:25:08;;;;;;;1.30;1.30;;;38.60;34.30;;;;;;5005250;28;20235;-85
2022/05/18 13:27:45;;;;;;;1.40;1.30;;;39.10;34.10;;;;;;5005259;28;20286;-84
2022/05/18 13:30:17;;;;;;;1.48;1.38;;;39.20;33.70;;;;;;5005335;28;20232;-85